CheckWX is a tool to help pilots better visualize weather data.  It is not intended as a substitute for an official pre-flight weather briefing.

06:55:02 UTC

21D METAR
Lake Elmo Airport
St Paul, Minnesota, USA
Current

20 mins ago

K21D 230635Z AUTO 00000KT 10SM M02/M06 A3016 RMK AO2
Observed
Feb-23 @ 06:35 UTC
Visibility
10 SM
Temperature
-2°C / 28°F
Dewpoint
-6°C / 21°F
Humidity
74%
Altimeter
30.16" Hg
Pressure
1021.32 hPa
Previous

39 mins ago

K21D 230616Z AUTO 05005KT 10SM M02/M06 A3015 RMK AO2
Observed
Feb-23 @ 06:16 UTC
Wind
  • 050° at 5 KTS
Visibility
10 SM
Temperature
-2°C / 28°F
Dewpoint
-6°C / 21°F
Humidity
74%
Altimeter
30.15" Hg
Pressure
1021.02 hPa
Previous

60 mins ago

K21D 230555Z AUTO 03004KT 10SM M02/M06 A3016 RMK AO2
Observed
Feb-23 @ 05:55 UTC
Wind
  • 030° at 4 KTS
Visibility
10 SM
Temperature
-2°C / 28°F
Dewpoint
-6°C / 21°F
Humidity
74%
Altimeter
30.16" Hg
Pressure
1021.32 hPa